Time;durP1;ratioP1;P1;durP2;ratioP2;P2;SDS_P1;SDS_P2;PMS_P1;PMS_P2;Temp;Humidity;BMP_temperature;BMP_pressure;BME280_temperature;BME280_humidity;BME280_pressure;Samples;Min_cycle;Max_cycle;Signal;HPM_P1;HPM_P2
2022/04/13 00:01:58;;;;;;;0.10;0.10;;;;;;;15.87;53.27;101257.84;5016083;28;20037;-81
2022/04/13 00:04:24;;;;;;;0.00;0.00;;;;;;;15.77;53.75;101261.75;5015779;28;20037;-82
2022/04/13 00:06:50;;;;;;;0.10;0.10;;;;;;;15.74;54.51;101268.06;5014539;28;20049;-82
2022/04/13 00:09:16;;;;;;;0.35;0.35;;;;;;;15.73;54.74;101274.31;5015260;28;20034;-82
2022/04/13 00:11:42;;;;;;;0.10;0.10;;;;;;;15.73;53.31;101268.97;5007911;28;20520;-81
2022/04/13 00:14:08;;;;;;;0.10;0.10;;;;;;;15.72;53.22;101267.22;5015622;28;20030;-82
2022/04/13 00:16:35;;;;;;;0.00;0.00;;;;;;;15.72;54.80;101269.91;5020734;28;20044;-82
2022/04/13 00:19:01;;;;;;;0.00;0.00;;;;;;;15.74;54.36;101265.41;5018825;28;20030;-82
2022/04/13 00:21:27;;;;;;;0.00;0.00;;;;;;;15.78;54.48;101271.50;5016203;28;20437;-82
2022/04/13 00:23:56;;;;;;;0.10;0.10;;;;;;;15.79;54.11;101257.22;5014824;28;20029;-82
2022/04/13 00:26:23;;;;;;;0.00;0.00;;;;;;;15.83;54.02;101261.56;5016395;28;20464;-83
2022/04/13 00:28:49;;;;;;;0.80;0.80;;;;;;;15.87;53.75;101259.66;5016770;28;20057;-82
2022/04/13 00:31:16;;;;;;;0.00;0.00;;;;;;;15.88;54.34;101256.91;5014336;28;20532;-82
2022/04/13 00:33:42;;;;;;;0.20;0.20;;;;;;;15.90;54.31;101254.19;5015035;28;20432;-82
2022/04/13 00:36:08;;;;;;;0.10;0.10;;;;;;;15.92;54.61;101257.69;5032266;28;20034;-81
2022/04/13 00:38:34;;;;;;;0.00;0.00;;;;;;;15.93;54.59;101270.13;5023636;28;20106;-81
2022/04/13 00:41:01;;;;;;;0.00;0.00;;;;;;;15.92;53.93;101266.56;5022571;28;20085;-81
2022/04/13 00:43:27;;;;;;;0.08;0.08;;;;;;;15.93;53.80;101264.78;5020704;28;20115;-81
2022/04/13 00:45:53;;;;;;;0.10;0.10;;;;;;;15.93;53.84;101267.44;5025252;28;20036;-82
2022/04/13 00:48:40;;;;;;;0.28;0.25;;;;;;;15.99;54.01;101267.22;5027223;28;20037;-81
2022/04/13 00:51:07;;;;;;;0.00;0.00;;;;;;;15.91;53.87;101271.97;5027307;28;20033;-81
2022/04/13 00:53:35;;;;;;;0.00;0.00;;;;;;;15.90;54.35;101273.78;5030503;28;20040;-81
2022/04/13 00:56:03;;;;;;;0.47;0.47;;;;;;;15.89;54.59;101280.03;5032650;28;20029;-80
2022/04/13 00:58:33;;;;;;;0.00;0.00;;;;;;;15.92;55.20;101276.38;5030672;28;20026;-80
2022/04/13 01:01:02;;;;;;;0.03;0.03;;;;;;;15.93;54.20;101275.47;5027257;28;20053;-81
2022/04/13 01:03:29;;;;;;;0.00;0.00;;;;;;;15.92;54.25;101285.25;5028644;28;20083;-81
2022/04/13 01:05:56;;;;;;;0.10;0.10;;;;;;;15.87;55.58;101284.56;5011707;28;20056;-82
2022/04/13 01:08:22;;;;;;;1.05;1.05;;;;;;;15.91;54.29;101285.31;5010005;28;20041;-82
2022/04/13 01:10:50;;;;;;;0.00;0.00;;;;;;;15.92;53.75;101289.75;5009920;28;20556;-82
2022/04/13 01:13:17;;;;;;;0.05;0.05;;;;;;;15.92;53.87;101295.09;5013787;28;20022;-82
2022/04/13 01:15:44;;;;;;;0.00;0.00;;;;;;;15.91;54.58;101293.34;5012675;28;20575;-81
2022/04/13 01:18:11;;;;;;;0.00;0.00;;;;;;;15.92;54.38;101292.44;5010713;28;20037;-81
2022/04/13 01:20:39;;;;;;;0.10;0.10;;;;;;;15.90;54.81;101287.16;5008693;28;20031;-81
2022/04/13 01:23:07;;;;;;;0.10;0.10;;;;;;;15.91;54.88;101294.19;5008054;28;20088;-81
2022/04/13 01:25:33;;;;;;;0.85;0.85;;;;;;;15.89;55.58;101297.84;5016860;28;20053;-81
2022/04/13 01:27:59;;;;;;;0.20;0.20;;;;;;;15.91;55.06;101304.03;5013802;28;20026;-82
2022/04/13 01:30:26;;;;;;;0.08;0.08;;;;;;;15.89;55.58;101311.22;5013619;28;20061;-82
2022/04/13 01:32:53;;;;;;;0.10;0.10;;;;;;;15.90;54.61;101307.63;5009926;28;20036;-81
2022/04/13 01:35:22;;;;;;;0.10;0.10;;;;;;;15.92;54.34;101308.47;5011061;28;20113;-81
2022/04/13 01:37:48;;;;;;;0.10;0.10;;;;;;;15.92;55.08;101305.78;5001239;28;20042;-81
2022/04/13 01:40:14;;;;;;;0.00;0.00;;;;;;;15.93;54.83;101308.41;5020194;28;20116;-81
2022/04/13 01:42:41;;;;;;;0.10;0.10;;;;;;;15.91;55.53;101310.25;5010183;28;20037;-81
2022/04/13 01:45:08;;;;;;;0.00;0.00;;;;;;;15.94;55.60;101312.81;5005250;28;20049;-81
2022/04/13 01:47:34;;;;;;;0.00;0.00;;;;;;;15.92;55.24;101314.66;5007354;28;20030;-81
2022/04/13 01:50:00;;;;;;;0.00;0.00;;;;;;;15.94;55.48;101310.16;5020256;28;20400;-80
2022/04/13 01:52:26;;;;;;;0.08;0.08;;;;;;;15.94;55.96;101311.97;5009620;28;20443;-81
2022/04/13 01:54:52;;;;;;;0.00;0.00;;;;;;;15.92;56.36;101313.81;5005581;28;20026;-81
2022/04/13 01:57:19;;;;;;;0.00;0.00;;;;;;;15.93;56.62;101315.56;5014960;28;20026;-81
2022/04/13 01:59:45;;;;;;;0.52;0.52;;;;;;;15.92;56.10;101312.00;5015802;28;20493;-81
2022/04/13 02:02:11;;;;;;;0.00;0.00;;;;;;;15.92;56.18;101311.13;5015122;28;20029;-81
2022/04/13 02:04:37;;;;;;;0.32;0.32;;;;;;;15.94;56.10;101309.28;5018489;28;20117;-82
2022/04/13 02:07:04;;;;;;;0.10;0.10;;;;;;;15.92;56.14;101313.81;5014852;28;20042;-82
2022/04/13 02:09:30;;;;;;;0.20;0.20;;;;;;;15.94;56.70;101317.31;5019314;28;20531;-81
2022/04/13 02:11:56;;;;;;;0.00;0.00;;;;;;;15.94;56.29;101320.84;5010992;28;20034;-81
2022/04/13 02:14:23;;;;;;;0.00;0.00;;;;;;;15.95;56.40;101327.03;5027276;28;20414;-81
2022/04/13 02:16:49;;;;;;;0.80;0.55;;;;;;;15.95;55.91;101327.03;5030345;28;20029;-81
2022/04/13 02:19:16;;;;;;;0.00;0.00;;;;;;;15.94;56.02;101319.97;5013496;28;20037;-82
2022/04/13 02:21:42;;;;;;;0.00;0.00;;;;;;;15.94;56.44;101330.66;5010433;28;20061;-81
2022/04/13 02:24:08;;;;;;;0.10;0.10;;;;;;;15.94;56.08;101334.19;5019613;28;20044;-82
2022/04/13 02:26:35;;;;;;;0.05;0.05;;;;;;;15.93;56.58;101334.25;5017566;28;20119;-81
2022/04/13 02:29:01;;;;;;;0.03;0.03;;;;;;;15.92;56.49;101337.84;5011902;28;20040;-81
2022/04/13 02:31:42;;;;;;;0.15;0.15;;;;;;;15.94;56.70;101334.19;5017077;28;20033;-82
2022/04/13 02:34:08;;;;;;;0.00;0.00;;;;;;;15.90;56.48;101337.91;5007417;28;20034;-81
2022/04/13 02:36:35;;;;;;;0.10;0.10;;;;;;;15.90;56.65;101329.00;5014241;28;20121;-81
2022/04/13 02:39:01;;;;;;;0.00;0.00;;;;;;;15.88;57.20;101328.22;5013450;28;20086;-81
2022/04/13 02:41:27;;;;;;;0.20;0.20;;;;;;;15.89;56.49;101325.47;5005842;28;20038;-81
2022/04/13 02:46:22;;;;;;;0.00;0.00;;;;;;;15.89;56.91;101335.28;5018771;28;20046;-75
2022/04/13 02:48:48;;;;;;;0.65;0.65;;;;;;;15.90;56.66;101331.69;5020025;28;20041;-75
2022/04/13 02:51:14;;;;;;;0.20;0.20;;;;;;;15.88;57.18;101336.22;5024205;28;20030;-75
2022/04/13 02:53:40;;;;;;;0.05;0.05;;;;;;;15.85;57.03;101347.88;5008312;28;20030;-75
2022/04/13 02:56:06;;;;;;;0.10;0.10;;;;;;;15.82;57.54;101343.50;5009657;28;20108;-75
2022/04/13 02:58:33;;;;;;;0.00;0.00;;;;;;;15.76;57.71;101340.13;5008270;28;20071;-75
2022/04/13 03:00:59;;;;;;;0.20;0.20;;;;;;;15.76;57.21;101337.47;5007442;28;20261;-75
2022/04/13 03:03:25;;;;;;;1.25;1.17;;;;;;;15.74;57.22;101342.88;5009913;28;20045;-75
2022/04/13 03:05:51;;;;;;;0.03;0.03;;;;;;;15.74;57.44;101347.31;5007719;28;20034;-75
2022/04/13 03:08:17;;;;;;;0.00;0.00;;;;;;;15.72;58.10;101341.19;5004474;28;20240;-75
2022/04/13 03:10:44;;;;;;;0.00;0.00;;;;;;;15.69;58.50;101347.50;4997221;28;20058;-75
2022/04/13 03:13:11;;;;;;;0.00;0.00;;;;;;;15.69;57.93;101355.50;5006472;28;20061;-75
2022/04/13 03:15:37;;;;;;;0.00;0.00;;;;;;;15.69;56.94;101358.19;5004400;28;20522;-75
2022/04/13 03:18:05;;;;;;;0.03;0.03;;;;;;;15.66;58.06;101364.50;5006810;28;20105;-75
2022/04/13 03:20:32;;;;;;;0.00;0.00;;;;;;;15.67;58.48;101360.03;5009422;28;20030;-75
2022/04/13 03:22:58;;;;;;;0.00;0.00;;;;;;;15.67;58.29;101360.03;5009509;28;20499;-75
2022/04/13 03:25:24;;;;;;;0.00;0.00;;;;;;;15.67;57.68;101368.91;5010104;28;20036;-75
2022/04/13 03:27:50;;;;;;;6.03;1.55;;;;;;;15.69;58.36;101374.22;5006747;28;20026;-75
2022/04/13 03:30:18;;;;;;;0.03;0.03;;;;;;;15.69;57.88;101363.53;5005535;28;20065;-75
2022/04/13 03:32:44;;;;;;;0.10;0.10;;;;;;;15.71;57.62;101366.13;5001622;28;20111;-76
2022/04/13 03:35:11;;;;;;;0.10;0.10;;;;;;;15.73;58.02;101358.97;5007669;28;20038;-75
2022/04/13 03:37:39;;;;;;;0.00;0.00;;;;;;;15.73;58.08;101367.81;5009974;28;20036;-75
2022/04/13 03:40:07;;;;;;;0.10;0.10;;;;;;;15.74;56.96;101368.69;5010927;28;20033;-76
2022/04/13 03:42:37;;;;;;;0.30;0.28;;;;;;;15.75;58.74;101375.78;5022140;28;20038;-75
2022/04/13 03:45:09;;;;;;;0.30;0.30;;;;;;;15.75;59.05;101373.13;5009428;28;20503;-75
2022/04/13 03:47:37;;;;;;;0.00;0.00;;;;;;;15.72;58.39;101383.91;5008525;28;20022;-75
2022/04/13 03:50:08;;;;;;;0.40;0.40;;;;;;;15.71;58.42;101388.38;5017625;28;20033;-75
2022/04/13 03:52:38;;;;;;;0.00;0.00;;;;;;;15.69;59.33;101388.44;5020607;28;20034;-75
2022/04/13 03:55:07;;;;;;;0.20;0.20;;;;;;;15.72;59.35;101383.91;5011938;28;20100;-75
2022/04/13 03:57:34;;;;;;;0.00;0.00;;;;;;;15.71;59.10;101385.69;5009669;28;20060;-76
2022/04/13 04:00:00;;;;;;;0.10;0.10;;;;;;;15.71;59.51;101383.03;5008920;28;20125;-76
2022/04/13 04:02:26;;;;;;;0.08;0.08;;;;;;;15.73;59.61;101393.69;5005496;28;20041;-76
2022/04/13 04:04:52;;;;;;;0.15;0.15;;;;;;;15.73;58.68;101397.22;5009971;28;20520;-76
2022/04/13 04:07:18;;;;;;;0.00;0.00;;;;;;;15.72;58.66;101392.78;5007605;28;20554;-76
2022/04/13 04:09:44;;;;;;;0.05;0.05;;;;;;;15.72;58.58;101399.94;5009011;28;20389;-76
2022/04/13 04:12:11;;;;;;;0.20;0.20;;;;;;;15.71;59.42;101393.72;5005883;28;20030;-76
2022/04/13 04:14:37;;;;;;;0.35;0.35;;;;;;;15.71;59.26;101396.38;5002346;28;20034;-76
2022/04/13 04:17:06;;;;;;;0.10;0.10;;;;;;;15.73;59.17;101401.69;5005240;28;20103;-76
2022/04/13 04:19:32;;;;;;;0.00;0.00;;;;;;;15.71;60.11;101404.41;5006133;28;20677;-76
2022/04/13 04:21:58;;;;;;;0.00;0.00;;;;;;;15.72;59.78;101411.50;5007342;28;20032;-76
2022/04/13 04:24:26;;;;;;;5.78;0.50;;;;;;;15.73;58.67;101409.72;5009640;28;20034;-76
2022/04/13 04:26:52;;;;;;;0.00;0.00;;;;;;;15.71;59.04;101407.06;5010805;28;20057;-76
2022/04/13 04:29:18;;;;;;;0.85;0.85;;;;;;;15.68;58.89;101404.50;5006816;28;20470;-77
2022/04/13 04:31:53;;;;;;;0.10;0.10;;;;;;;15.61;60.58;101411.81;5008992;28;20037;-76
2022/04/13 04:34:20;;;;;;;0.00;0.00;;;;;;;15.55;60.19;101413.84;5002509;28;20058;-76
2022/04/13 04:36:47;;;;;;;0.00;0.00;;;;;;;15.48;60.83;101415.84;5009217;28;20064;-76
2022/04/13 04:39:13;;;;;;;0.00;0.00;;;;;;;15.44;59.92;101428.41;5000350;28;20033;-76
2022/04/13 04:41:40;;;;;;;0.55;0.52;;;;;;;15.39;59.78;101433.03;5007273;28;20030;-76
2022/04/13 04:44:08;;;;;;;1.35;1.10;;;;;;;15.35;59.85;101440.25;5008912;28;20034;-76
2022/04/13 04:46:35;;;;;;;0.10;0.10;;;;;;;15.32;59.39;101447.47;5008559;28;20040;-76
2022/04/13 04:49:02;;;;;;;0.00;0.00;;;;;;;15.28;60.10;101453.84;5010040;28;20175;-76
2022/04/13 04:51:30;;;;;;;0.05;0.05;;;;;;;15.24;59.54;101457.50;5009235;28;20034;-77
2022/04/13 04:53:56;;;;;;;0.00;0.00;;;;;;;15.18;60.10;101456.75;5009127;28;20121;-76
2022/04/13 04:56:23;;;;;;;0.00;0.00;;;;;;;15.17;59.63;101460.34;5008650;28;20030;-76
2022/04/13 04:58:49;;;;;;;0.17;0.17;;;;;;;15.13;59.74;101472.03;5008698;28;20484;-76
2022/04/13 05:01:15;;;;;;;0.00;0.00;;;;;;;15.10;60.80;101477.44;5006969;28;20041;-76
2022/04/13 05:03:43;;;;;;;1.00;0.98;;;;;;;15.08;60.03;101479.31;5009698;28;20044;-76
2022/04/13 05:06:09;;;;;;;0.10;0.10;;;;;;;15.06;60.14;101485.59;5010667;28;20069;-76
2022/04/13 05:08:35;;;;;;;0.10;0.10;;;;;;;15.06;59.75;101475.78;5010585;28;20041;-76
2022/04/13 05:11:03;;;;;;;0.10;0.10;;;;;;;15.06;60.13;101480.28;5007098;28;20651;-76
2022/04/13 05:13:31;;;;;;;0.00;0.00;;;;;;;15.08;60.03;101479.31;5018358;28;20064;-76
2022/04/13 05:16:00;;;;;;;0.00;0.00;;;;;;;15.02;60.39;101477.69;5014461;28;20659;-76
2022/04/13 05:18:26;;;;;;;0.00;0.00;;;;;;;14.98;60.03;101485.84;5007476;28;20211;-76
2022/04/13 05:20:53;;;;;;;0.25;0.25;;;;;;;14.96;60.25;101485.00;5007357;28;20033;-76
2022/04/13 05:23:19;;;;;;;0.10;0.10;;;;;;;14.95;60.18;101485.91;4998336;28;20038;-76
2022/04/13 05:25:46;;;;;;;0.00;0.00;;;;;;;14.94;60.28;101486.81;5006546;28;20493;-77
2022/04/13 05:28:12;;;;;;;0.00;0.00;;;;;;;14.93;60.39;101490.41;5004383;28;20019;-76
2022/04/13 05:30:39;;;;;;;0.00;0.00;;;;;;;14.92;60.36;101494.00;5002596;28;20037;-76
2022/04/13 05:33:07;;;;;;;0.05;0.05;;;;;;;14.92;60.41;101494.00;5011384;28;20030;-76
2022/04/13 05:35:33;;;;;;;0.00;0.00;;;;;;;14.90;60.67;101493.16;5012223;28;20038;-77
2022/04/13 05:38:02;;;;;;;0.00;0.00;;;;;;;14.89;60.56;101502.94;5007211;28;20029;-75
2022/04/13 05:40:28;;;;;;;0.10;0.10;;;;;;;14.93;60.71;101511.75;5011352;28;20056;-75
2022/04/13 05:42:54;;;;;;;0.10;0.10;;;;;;;14.94;61.02;101513.50;5004841;28;20038;-76
2022/04/13 05:45:21;;;;;;;0.00;0.00;;;;;;;14.97;60.95;101514.28;5006920;28;20153;-76
2022/04/13 05:47:47;;;;;;;0.00;0.00;;;;;;;15.01;60.48;101518.63;5006179;28;20076;-76
2022/04/13 05:50:13;;;;;;;0.50;0.50;;;;;;;15.04;61.71;101523.88;5005094;28;20061;-76
2022/04/13 05:52:41;;;;;;;0.10;0.10;;;;;;;15.09;61.21;101525.53;5007140;28;20165;-77
2022/04/13 05:55:09;;;;;;;1.58;0.95;;;;;;;15.13;61.65;101525.41;5005433;28;20038;-76
2022/04/13 05:57:36;;;;;;;0.00;0.00;;;;;;;15.16;61.09;101525.31;5005130;28;20026;-76
2022/04/13 06:00:04;;;;;;;0.00;0.00;;;;;;;15.19;61.14;101525.25;5010998;28;20115;-76
2022/04/13 06:02:30;;;;;;;0.13;0.13;;;;;;;15.26;61.48;101531.28;5009805;28;20029;-76
2022/04/13 06:04:56;;;;;;;0.00;0.00;;;;;;;15.32;60.92;101527.56;5010958;28;20546;-76
2022/04/13 06:07:22;;;;;;;0.00;0.00;;;;;;;15.37;61.42;101534.50;5007891;28;20373;-76
2022/04/13 06:09:48;;;;;;;0.10;0.10;;;;;;;15.42;62.18;101549.53;5012130;28;20064;-76
2022/04/13 06:12:22;;;;;;;0.20;0.20;;;;;;;15.52;61.69;101549.19;5012302;28;20030;-76
2022/04/13 06:14:48;;;;;;;0.00;0.00;;;;;;;15.54;61.62;101551.84;5013142;28;20026;-76
2022/04/13 06:17:15;;;;;;;0.00;0.00;;;;;;;15.58;61.70;101555.31;5012068;28;20050;-76
2022/04/13 06:19:41;;;;;;;0.00;0.00;;;;;;;15.65;61.24;101562.19;5011305;28;20053;-76
2022/04/13 06:22:07;;;;;;;0.22;0.22;;;;;;;15.72;61.63;101563.78;5011801;28;20065;-76
2022/04/13 06:24:33;;;;;;;0.00;0.00;;;;;;;15.77;61.29;101563.66;5013232;28;20523;-76
2022/04/13 06:26:59;;;;;;;0.22;0.22;;;;;;;15.81;61.61;101571.53;5011671;28;20040;-76
2022/04/13 06:29:25;;;;;;;0.03;0.03;;;;;;;15.89;61.21;101575.78;5011904;28;20057;-76
2022/04/13 06:31:51;;;;;;;0.10;0.10;;;;;;;15.91;61.77;101577.47;5010877;28;20121;-76
2022/04/13 06:34:17;;;;;;;0.05;0.05;;;;;;;15.96;61.00;101583.56;5012299;28;20029;-76
2022/04/13 06:36:44;;;;;;;0.47;0.47;;;;;;;16.01;61.19;101584.31;5015488;28;20033;-76
2022/04/13 06:39:10;;;;;;;1.13;1.13;;;;;;;16.08;61.15;101586.78;5014420;28;20045;-76
2022/04/13 06:41:36;;;;;;;0.43;0.43;;;;;;;16.13;61.27;101593.72;5011804;28;20029;-76
2022/04/13 06:44:02;;;;;;;0.20;0.20;;;;;;;16.18;61.19;101591.78;5007458;28;20029;-76
2022/04/13 06:46:28;;;;;;;0.00;0.00;;;;;;;16.24;61.29;101600.56;5011735;28;20065;-76
2022/04/13 06:48:54;;;;;;;0.10;0.10;;;;;;;16.27;61.08;101603.13;5011147;28;20057;-76
2022/04/13 06:51:20;;;;;;;0.10;0.10;;;;;;;16.34;60.52;101607.34;5011476;28;20502;-76
2022/04/13 06:53:46;;;;;;;0.05;0.05;;;;;;;16.39;60.55;101617.91;5012546;28;20030;-77
2022/04/13 06:56:13;;;;;;;0.65;0.50;;;;;;;16.45;60.61;101617.72;5012113;28;20041;-77
2022/04/13 06:58:41;;;;;;;0.00;0.00;;;;;;;16.48;60.44;101621.13;5010492;28;20025;-76
2022/04/13 07:01:29;;;;;;;0.57;0.57;;;;;;;16.61;59.79;101628.75;5009658;28;20112;-76
2022/04/13 07:03:55;;;;;;;0.00;0.00;;;;;;;16.57;60.37;101635.16;5012276;28;20034;-76
2022/04/13 07:06:21;;;;;;;0.20;0.20;;;;;;;16.58;59.74;101626.22;5012072;28;20053;-76
2022/04/13 07:08:47;;;;;;;0.10;0.10;;;;;;;16.60;60.21;101619.00;5012016;28;20087;-76
2022/04/13 07:11:14;;;;;;;0.32;0.32;;;;;;;16.60;59.89;101629.72;5011508;28;20041;-76
2022/04/13 07:13:40;;;;;;;0.60;0.60;;;;;;;16.63;60.32;101627.78;5011266;28;20372;-76
2022/04/13 07:16:06;;;;;;;0.22;0.20;;;;;;;16.70;60.58;101620.44;5008539;28;20048;-76
2022/04/13 07:18:34;;;;;;;0.32;0.32;;;;;;;16.75;60.64;101631.00;5009173;28;20034;-76
2022/04/13 07:21:01;;;;;;;0.38;0.38;;;;;;;16.89;60.03;101634.09;5007993;28;20079;-76
2022/04/13 07:23:27;;;;;;;0.00;0.00;;;;;;;16.97;59.95;101639.19;5009599;28;20048;-76
2022/04/13 07:25:54;;;;;;;0.30;0.30;;;;;;;17.01;59.61;101635.50;5010617;28;20036;-76
2022/04/13 07:28:20;;;;;;;0.08;0.08;;;;;;;17.04;59.53;101646.09;5009243;28;20053;-76
2022/04/13 07:30:46;;;;;;;1.98;0.70;;;;;;;17.08;59.45;101649.56;5009810;28;20445;-76
2022/04/13 07:33:12;;;;;;;1.85;1.50;;;;;;;17.13;59.34;101645.81;5010588;28;20056;-76
2022/04/13 07:35:38;;;;;;;0.13;0.13;;;;;;;17.20;58.98;101645.59;5009152;28;20038;-76
2022/04/13 07:38:04;;;;;;;0.57;0.57;;;;;;;17.24;59.56;101649.91;5008783;28;20018;-76
2022/04/13 07:40:30;;;;;;;0.20;0.20;;;;;;;17.34;58.93;101653.13;5008223;28;20041;-76
2022/04/13 07:42:57;;;;;;;0.00;0.00;;;;;;;17.41;58.62;101655.53;5009687;28;20132;-76
2022/04/13 07:45:23;;;;;;;0.52;0.43;;;;;;;17.49;58.63;101654.38;5008886;28;20066;-76
2022/04/13 07:47:49;;;;;;;0.73;0.73;;;;;;;17.53;59.01;101664.06;5007348;28;20763;-76
2022/04/13 07:50:15;;;;;;;0.10;0.10;;;;;;;17.59;58.54;101659.34;5007634;28;20060;-76
2022/04/13 07:52:42;;;;;;;0.85;0.85;;;;;;;17.63;58.33;101663.66;5007023;28;20050;-76
2022/04/13 07:55:10;;;;;;;0.10;0.10;;;;;;;17.64;57.03;101661.84;5007415;28;20037;-76
2022/04/13 07:57:37;;;;;;;2.15;2.05;;;;;;;17.72;56.43;101674.97;5011532;28;20128;-76
2022/04/13 08:00:06;;;;;;;0.10;0.10;;;;;;;17.80;56.67;101667.53;5006743;28;20033;-76
2022/04/13 08:02:34;;;;;;;0.10;0.10;;;;;;;17.77;56.20;101673.88;5007984;28;20040;-76
2022/04/13 08:05:00;;;;;;;0.68;0.68;;;;;;;17.81;55.53;101669.28;5008410;28;20496;-76
2022/04/13 08:07:26;;;;;;;0.32;0.32;;;;;;;17.83;56.29;101669.22;5009087;28;20034;-73
2022/04/13 08:09:53;;;;;;;0.30;0.30;;;;;;;17.87;56.08;101665.47;5010143;28;20036;-75
2022/04/13 08:12:19;;;;;;;0.17;0.17;;;;;;;17.90;56.00;101668.06;5009935;28;20040;-75
2022/04/13 08:14:46;;;;;;;0.20;0.20;;;;;;;17.87;55.65;101671.72;5010632;28;20037;-75
2022/04/13 08:17:13;;;;;;;0.10;0.10;;;;;;;17.88;55.71;101668.13;5009551;28;20033;-75
2022/04/13 08:19:39;;;;;;;0.40;0.40;;;;;;;17.87;55.52;101673.53;5009003;28;20128;-75
2022/04/13 08:22:05;;;;;;;0.10;0.10;;;;;;;17.86;55.27;101671.78;5007922;28;20098;-75
2022/04/13 08:24:32;;;;;;;0.28;0.28;;;;;;;17.87;55.25;101679.78;5010281;28;20131;-75
2022/04/13 08:27:01;;;;;;;0.00;0.00;;;;;;;17.89;55.25;101679.72;5010635;28;20022;-76
2022/04/13 08:29:27;;;;;;;0.20;0.20;;;;;;;17.93;55.16;101694.75;5010572;28;20030;-77
2022/04/13 08:31:53;;;;;;;0.00;0.00;;;;;;;18.03;55.45;101689.94;5006038;28;20034;-77
2022/04/13 08:34:19;;;;;;;0.08;0.08;;;;;;;18.09;55.13;101700.44;5009724;28;20046;-77
2022/04/13 08:36:46;;;;;;;1.13;1.13;;;;;;;18.05;54.14;101701.50;5010702;28;20489;-75
2022/04/13 08:39:13;;;;;;;0.00;0.00;;;;;;;18.10;54.67;101707.56;5010411;28;20026;-75
2022/04/13 08:47:01;;;;;;;3.30;1.38;;;;;;;18.14;54.09;101703.81;5050075;28;21028;-79
2022/04/13 08:49:28;;;;;;;0.00;0.00;;;;;;;18.18;53.50;101704.56;5051635;28;20439;-76
2022/04/13 08:51:54;;;;;;;0.50;0.50;;;;;;;18.17;52.96;101702.81;5045028;28;20029;-78
2022/04/13 08:54:28;;;;;;;0.25;0.25;;;;;;;18.17;53.62;101702.81;5048992;28;20025;-77
2022/04/13 08:56:57;;;;;;;0.00;0.00;;;;;;;18.23;54.07;101699.91;5048675;28;20414;-76
2022/04/13 09:05:06;;;;;;;1.58;0.57;;;;;;;18.23;53.84;101707.94;5079222;28;20418;-77
2022/04/13 09:07:34;;;;;;;0.10;0.10;;;;;;;18.22;53.57;101708.91;5099813;28;20155;-77
2022/04/13 09:10:02;;;;;;;0.08;0.08;;;;;;;18.27;53.31;101720.34;5093712;28;20033;-77
2022/04/13 09:12:33;;;;;;;0.08;0.08;;;;;;;18.29;53.34;101721.13;5088857;28;20403;-78
2022/04/13 09:15:01;;;;;;;0.00;0.00;;;;;;;18.32;53.09;101733.53;5091600;28;20025;-77
2022/04/13 09:17:29;;;;;;;0.00;0.00;;;;;;;18.31;53.12;101740.72;5092630;28;20050;-76
2022/04/13 09:19:58;;;;;;;0.08;0.08;;;;;;;18.19;53.40;101743.88;5090646;28;20028;-78
2022/04/13 09:22:25;;;;;;;0.00;0.00;;;;;;;18.18;53.57;101743.00;5089732;28;20520;-76
2022/04/13 09:24:52;;;;;;;0.10;0.10;;;;;;;18.21;53.53;101748.25;5086622;28;20036;-76
2022/04/13 09:27:20;;;;;;;0.00;0.00;;;;;;;18.25;53.42;101751.69;5082692;28;20040;-76
2022/04/13 09:29:47;;;;;;;1.35;1.25;;;;;;;18.23;53.33;101753.56;5076476;28;20028;-76
2022/04/13 09:32:14;;;;;;;0.00;0.00;;;;;;;18.27;53.11;101752.53;5077636;28;20032;-76
2022/04/13 09:34:41;;;;;;;0.20;0.20;;;;;;;18.32;53.11;101763.94;5089444;28;20028;-77
2022/04/13 09:37:07;;;;;;;1.30;1.20;;;;;;;18.37;52.93;101759.28;5089882;28;20059;-77
2022/04/13 09:39:34;;;;;;;0.10;0.10;;;;;;;18.47;52.59;101766.97;5090528;28;20054;-76
2022/04/13 09:42:03;;;;;;;0.10;0.10;;;;;;;18.51;52.81;101765.94;5086484;28;20032;-76
2022/04/13 09:44:30;;;;;;;0.20;0.20;;;;;;;18.53;52.52;101770.31;5091687;28;20029;-78
2022/04/13 09:47:15;;;;;;;0.00;0.00;;;;;;;18.68;52.18;101774.19;5080548;28;20509;-77
2022/04/13 09:49:46;;;;;;;0.00;0.00;;;;;;;18.79;52.33;101781.84;5082025;28;20487;-77
2022/04/13 09:52:15;;;;;;;0.43;0.43;;;;;;;18.74;51.89;101791.84;5075106;28;20104;-76
2022/04/13 09:54:46;;;;;;;0.95;0.95;;;;;;;18.76;51.78;101792.69;5080322;28;20036;-78
2022/04/13 09:57:28;;;;;;;0.05;0.05;;;;;;;18.86;51.29;101794.06;5084391;28;20032;-76
2022/04/13 09:59:56;;;;;;;0.00;0.00;;;;;;;18.79;51.13;101802.41;5077119;28;20032;-76
2022/04/13 10:08:10;;;;;;;0.10;0.10;;;;;;;19.01;51.25;101792.59;5109060;27;20929;-75
2022/04/13 10:10:40;;;;;;;0.40;0.40;;;;;;;19.01;51.47;101787.22;5094538;28;20489;-77
2022/04/13 10:13:07;;;;;;;0.13;0.13;;;;;;;19.11;51.31;101786.88;5104538;28;20020;-75
2022/04/13 10:15:33;;;;;;;0.00;0.00;;;;;;;19.13;51.24;101795.72;5109453;28;20028;-76
2022/04/13 10:18:00;;;;;;;0.20;0.20;;;;;;;19.14;51.08;101802.84;5100198;28;20036;-77
2022/04/13 10:20:45;;;;;;;0.10;0.10;;;;;;;19.19;51.17;101806.22;5102069;28;20040;-77
2022/04/13 10:23:12;;;;;;;0.20;0.20;;;;;;;19.10;51.38;101796.72;5114022;28;20035;-77
2022/04/13 10:25:39;;;;;;;1.17;0.45;;;;;;;19.02;51.68;101797.03;5108727;28;20028;-78
2022/04/13 10:28:06;;;;;;;0.05;0.05;;;;;;;19.00;51.61;101796.22;5111601;28;20489;-77
2022/04/13 10:30:34;;;;;;;0.10;0.10;;;;;;;19.00;51.77;101798.91;5105698;28;20056;-77
2022/04/13 10:35:44;;;;;;;2.38;0.82;;;;;;;18.98;51.84;101811.53;5133126;27;20397;-78
2022/04/13 10:38:12;;;;;;;0.13;0.13;;;;;;;18.92;51.86;101809.09;5100564;28;20390;-78
2022/04/13 10:40:40;;;;;;;0.10;0.10;;;;;;;18.94;52.05;101799.19;5103367;28;20024;-77
2022/04/13 10:43:08;;;;;;;0.00;0.00;;;;;;;18.90;51.96;101802.88;5099776;28;20023;-78
2022/04/13 10:45:39;;;;;;;0.10;0.10;;;;;;;18.93;51.99;101797.44;5099585;28;20033;-80
2022/04/13 10:48:08;;;;;;;0.47;0.47;;;;;;;18.90;52.04;101805.56;5098820;28;20024;-79
2022/04/13 10:53:29;;;;;;;0.00;0.00;;;;;;;18.91;53.27;101812.72;5118925;27;20385;-79
2022/04/13 10:56:05;;;;;;;0.60;0.60;;;;;;;18.94;52.70;101812.59;5104454;28;20031;-79
2022/04/13 10:59:00;;;;;;;1.00;1.00;;;;;;;19.07;52.45;101813.84;5109478;28;20026;-78
2022/04/13 11:01:37;;;;;;;0.00;0.00;;;;;;;19.07;53.20;101805.78;5101642;28;20065;-78
2022/04/13 11:04:07;;;;;;;0.00;0.00;;;;;;;19.20;54.27;101807.97;5102592;28;20024;-79
2022/04/13 11:06:34;;;;;;;0.15;0.15;;;;;;;19.25;53.04;101816.72;5103281;28;20082;-79
2022/04/13 11:09:15;;;;;;;0.00;0.00;;;;;;;19.27;53.32;101820.22;5102479;28;20484;-78
2022/04/13 11:11:43;;;;;;;0.08;0.08;;;;;;;19.17;54.34;101819.72;5097465;28;20063;-78
2022/04/13 11:14:25;;;;;;;0.13;0.13;;;;;;;19.24;53.87;101828.44;5099094;28;20032;-78
2022/04/13 11:19:43;;;;;;;0.38;0.38;;;;;;;19.08;54.45;101830.84;5102578;27;1215950;-78
2022/04/13 11:22:12;;;;;;;1.35;1.20;;;;;;;19.10;54.01;101833.47;5121172;27;20066;-78
2022/04/13 11:27:15;;;;;;;0.00;0.00;;;;;;;19.19;54.26;101838.44;5015236;28;20402;-78
2022/04/13 11:29:44;;;;;;;0.00;0.00;;;;;;;19.24;53.17;101842.72;5018679;28;20067;-78
2022/04/13 11:40:12;;;;;;;0.00;0.00;;;;;;;19.54;52.18;101836.16;5062065;27;20410;-77
2022/04/13 11:45:17;;;;;;;0.00;0.00;;;;;;;19.80;51.12;101826.97;5123047;27;20386;-78
2022/04/13 11:50:24;;;;;;;0.17;0.17;;;;;;;20.03;51.27;101834.03;5019878;28;20144;-78
2022/04/13 11:55:44;;;;;;;0.00;0.00;;;;;;;20.39;50.12;101836.97;5099666;27;20397;-79
2022/04/13 12:06:08;;;;;;;0.20;0.20;;;;;;;20.79;48.25;101840.56;5137741;27;20390;-78
2022/04/13 12:08:40;;;;;;;0.10;0.10;;;;;;;20.79;47.98;101845.94;5140146;28;20038;-80
2022/04/13 12:11:08;;;;;;;0.10;0.10;;;;;;;20.74;47.03;101837.22;5136389;28;20054;-79
2022/04/13 12:13:54;;;;;;;0.63;0.63;;;;;;;20.86;46.82;101847.41;5140821;27;20038;-79
2022/04/13 12:16:25;;;;;;;0.00;0.00;;;;;;;20.90;47.44;101853.50;5130235;27;20528;-76
2022/04/13 12:18:54;;;;;;;0.20;0.20;;;;;;;20.95;47.11;101851.47;5127948;28;20023;-77
2022/04/13 12:21:24;;;;;;;0.10;0.10;;;;;;;21.11;47.61;101852.47;5136430;27;20105;-78